sensor_id;sensor_type;location;lat;lon;timestamp;pressure;altitude;pressure_sealevel;temperature;humidity
71361;BME280;59166;48.908;1.870;2023-11-18T00:02:32;101130.66;;;8.86;100.00
71361;BME280;59166;48.908;1.870;2023-11-18T00:07:35;101127.75;;;8.87;100.00
71361;BME280;59166;48.908;1.870;2023-11-18T00:12:36;101137.50;;;8.88;100.00
71361;BME280;59166;48.908;1.870;2023-11-18T00:17:37;101136.66;;;8.88;100.00
71361;BME280;59166;48.908;1.870;2023-11-18T00:22:39;101138.31;;;8.89;100.00
71361;BME280;59166;48.908;1.870;2023-11-18T00:27:40;101142.47;;;8.91;100.00
71361;BME280;59166;48.908;1.870;2023-11-18T00:32:41;101126.88;;;8.93;100.00
71361;BME280;59166;48.908;1.870;2023-11-18T00:37:43;101116.31;;;8.92;100.00
71361;BME280;59166;48.908;1.870;2023-11-18T00:42:44;101117.13;;;8.92;100.00
71361;BME280;59166;48.908;1.870;2023-11-18T00:47:44;101116.09;;;8.93;100.00
71361;BME280;59166;48.908;1.870;2023-11-18T00:52:47;101099.09;;;8.93;100.00
71361;BME280;59166;48.908;1.870;2023-11-18T00:57:47;101083.53;;;8.95;100.00
71361;BME280;59166;48.908;1.870;2023-11-18T01:02:48;101078.94;;;8.95;100.00
71361;BME280;59166;48.908;1.870;2023-11-18T01:07:51;101076.25;;;8.95;100.00
71361;BME280;59166;48.908;1.870;2023-11-18T01:12:51;101070.75;;;8.90;100.00
71361;BME280;59166;48.908;1.870;2023-11-18T01:17:52;101052.94;;;8.89;100.00
71361;BME280;59166;48.908;1.870;2023-11-18T01:22:54;101062.19;;;8.93;100.00
71361;BME280;59166;48.908;1.870;2023-11-18T01:27:55;101052.47;;;8.92;100.00
71361;BME280;59166;48.908;1.870;2023-11-18T01:32:56;101056.34;;;8.96;100.00
71361;BME280;59166;48.908;1.870;2023-11-18T01:37:58;101039.97;;;8.98;100.00
71361;BME280;59166;48.908;1.870;2023-11-18T01:42:59;101037.47;;;8.96;100.00
71361;BME280;59166;48.908;1.870;2023-11-18T01:47:59;101043.13;;;8.95;100.00
71361;BME280;59166;48.908;1.870;2023-11-18T01:53:02;101036.09;;;8.94;100.00
71361;BME280;59166;48.908;1.870;2023-11-18T01:58:03;101033.13;;;8.95;100.00
71361;BME280;59166;48.908;1.870;2023-11-18T02:03:03;101020.75;;;8.94;100.00
71361;BME280;59166;48.908;1.870;2023-11-18T02:08:06;101034.31;;;8.99;100.00
71361;BME280;59166;48.908;1.870;2023-11-18T02:13:12;101054.22;;;8.98;100.00
71361;BME280;59166;48.908;1.870;2023-11-18T02:18:19;101064.78;;;9.00;100.00
71361;BME280;59166;48.908;1.870;2023-11-18T02:23:23;101069.81;;;8.96;100.00
71361;BME280;59166;48.908;1.870;2023-11-18T02:28:25;101067.13;;;8.96;100.00
71361;BME280;59166;48.908;1.870;2023-11-18T02:33:30;101060.81;;;9.02;100.00
71361;BME280;59166;48.908;1.870;2023-11-18T02:38:39;101056.34;;;8.96;100.00
71361;BME280;59166;48.908;1.870;2023-11-18T02:43:42;101043.59;;;9.03;100.00
71361;BME280;59166;48.908;1.870;2023-11-18T02:48:43;101040.69;;;9.05;100.00
71361;BME280;59166;48.908;1.870;2023-11-18T02:53:44;101029.53;;;9.01;100.00
71361;BME280;59166;48.908;1.870;2023-11-18T02:58:46;101018.97;;;9.00;100.00
71361;BME280;59166;48.908;1.870;2023-11-18T03:03:47;100994.94;;;8.98;100.00
71361;BME280;59166;48.908;1.870;2023-11-18T03:08:48;100972.13;;;9.01;100.00
71361;BME280;59166;48.908;1.870;2023-11-18T03:13:50;100962.03;;;8.96;100.00
71361;BME280;59166;48.908;1.870;2023-11-18T03:18:51;100940.94;;;8.93;100.00
71361;BME280;59166;48.908;1.870;2023-11-18T03:23:52;100929.00;;;8.89;100.00
71361;BME280;59166;48.908;1.870;2023-11-18T03:28:54;100946.56;;;8.92;100.00
71361;BME280;59166;48.908;1.870;2023-11-18T03:33:55;100929.13;;;8.94;100.00
71361;BME280;59166;48.908;1.870;2023-11-18T03:38:55;100924.78;;;8.93;100.00
71361;BME280;59166;48.908;1.870;2023-11-18T03:43:57;100925.84;;;8.92;100.00
71361;BME280;59166;48.908;1.870;2023-11-18T03:48:58;100914.47;;;8.90;100.00
71361;BME280;59166;48.908;1.870;2023-11-18T03:53:59;100914.84;;;8.94;100.00
71361;BME280;59166;48.908;1.870;2023-11-18T03:59:01;100907.56;;;8.94;100.00
71361;BME280;59166;48.908;1.870;2023-11-18T04:04:02;100900.53;;;8.93;100.00
71361;BME280;59166;48.908;1.870;2023-11-18T04:09:03;100890.31;;;8.95;100.00
71361;BME280;59166;48.908;1.870;2023-11-18T04:14:05;100888.94;;;8.93;100.00
71361;BME280;59166;48.908;1.870;2023-11-18T04:19:06;100887.06;;;8.93;100.00
71361;BME280;59166;48.908;1.870;2023-11-18T04:24:07;100883.31;;;8.94;100.00
71361;BME280;59166;48.908;1.870;2023-11-18T04:29:10;100897.00;;;8.93;100.00
71361;BME280;59166;48.908;1.870;2023-11-18T04:34:10;100901.09;;;8.95;100.00
71361;BME280;59166;48.908;1.870;2023-11-18T04:39:11;100900.53;;;8.93;100.00
71361;BME280;59166;48.908;1.870;2023-11-18T04:44:13;100891.97;;;8.96;100.00
71361;BME280;59166;48.908;1.870;2023-11-18T04:49:15;100883.31;;;8.94;100.00
71361;BME280;59166;48.908;1.870;2023-11-18T04:54:15;100869.03;;;8.94;100.00
71361;BME280;59166;48.908;1.870;2023-11-18T04:59:18;100868.31;;;8.98;100.00
71361;BME280;59166;48.908;1.870;2023-11-18T05:04:19;100856.38;;;8.94;100.00
71361;BME280;59166;48.908;1.870;2023-11-18T05:09:20;100838.56;;;8.93;100.00
71361;BME280;59166;48.908;1.870;2023-11-18T05:14:22;100835.88;;;8.93;100.00
71361;BME280;59166;48.908;1.870;2023-11-18T05:19:23;100830.34;;;8.88;100.00
71361;BME280;59166;48.908;1.870;2023-11-18T05:24:24;100832.44;;;8.86;100.00
71361;BME280;59166;48.908;1.870;2023-11-18T05:29:26;100827.06;;;8.86;100.00
71361;BME280;59166;48.908;1.870;2023-11-18T05:34:27;100823.78;;;8.84;100.00
71361;BME280;59166;48.908;1.870;2023-11-18T05:39:27;100802.25;;;8.84;100.00
71361;BME280;59166;48.908;1.870;2023-11-18T05:44:30;100783.25;;;8.79;100.00
71361;BME280;59166;48.908;1.870;2023-11-18T05:49:30;100790.28;;;8.80;100.00
71361;BME280;59166;48.908;1.870;2023-11-18T05:54:31;100771.19;;;8.81;100.00
71361;BME280;59166;48.908;1.870;2023-11-18T05:59:33;100779.75;;;8.78;100.00
71361;BME280;59166;48.908;1.870;2023-11-18T06:04:34;100798.38;;;8.80;100.00
71361;BME280;59166;48.908;1.870;2023-11-18T06:09:35;100790.28;;;8.80;100.00
71361;BME280;59166;48.908;1.870;2023-11-18T06:14:37;100773.66;;;8.83;100.00
71361;BME280;59166;48.908;1.870;2023-11-18T06:19:38;100762.88;;;8.83;100.00
71361;BME280;59166;48.908;1.870;2023-11-18T06:24:39;100756.94;;;8.81;100.00
71361;BME280;59166;48.908;1.870;2023-11-18T06:29:41;100765.00;;;8.81;100.00
71361;BME280;59166;48.908;1.870;2023-11-18T06:34:42;100748.03;;;8.80;100.00
71361;BME280;59166;48.908;1.870;2023-11-18T06:39:43;100733.13;;;8.78;100.00
71361;BME280;59166;48.908;1.870;2023-11-18T06:44:45;100728.34;;;8.80;100.00
71361;BME280;59166;48.908;1.870;2023-11-18T06:49:46;100714.06;;;8.79;100.00
71361;BME280;59166;48.908;1.870;2023-11-18T06:54:47;100714.88;;;8.80;100.00
71361;BME280;59166;48.908;1.870;2023-11-18T06:59:49;100714.06;;;8.79;100.00
71361;BME280;59166;48.908;1.870;2023-11-18T07:04:49;100720.25;;;8.80;100.00
71361;BME280;59166;48.908;1.870;2023-11-18T07:09:50;100715.22;;;8.83;100.00
71361;BME280;59166;48.908;1.870;2023-11-18T07:14:52;100711.22;;;8.86;100.00
71361;BME280;59166;48.908;1.870;2023-11-18T07:19:53;100707.94;;;8.84;100.00
71361;BME280;59166;48.908;1.870;2023-11-18T07:24:54;100717.19;;;8.88;100.00
71361;BME280;59166;48.908;1.870;2023-11-18T07:29:56;100726.34;;;8.87;100.00
71361;BME280;59166;48.908;1.870;2023-11-18T07:34:57;100731.28;;;8.90;100.00
71361;BME280;59166;48.908;1.870;2023-11-18T07:39:57;100734.53;;;8.92;100.00
71361;BME280;59166;48.908;1.870;2023-11-18T07:45:00;100728.66;;;8.95;100.00
71361;BME280;59166;48.908;1.870;2023-11-18T07:50:01;100731.47;;;9.00;100.00
71361;BME280;59166;48.908;1.870;2023-11-18T07:55:01;100734.38;;;9.10;100.00
71361;BME280;59166;48.908;1.870;2023-11-18T08:00:04;100738.72;;;9.11;100.00
71361;BME280;59166;48.908;1.870;2023-11-18T08:05:05;100724.41;;;9.11;100.00
71361;BME280;59166;48.908;1.870;2023-11-18T08:10:07;100721.47;;;9.12;100.00
71361;BME280;59166;48.908;1.870;2023-11-18T08:15:10;100712.41;;;9.18;100.00
71361;BME280;59166;48.908;1.870;2023-11-18T08:20:11;100709.25;;;9.21;100.00
71361;BME280;59166;48.908;1.870;2023-11-18T08:25:12;100709.00;;;9.23;100.00
71361;BME280;59166;48.908;1.870;2023-11-18T08:30:15;100702.88;;;9.27;100.00
71361;BME280;59166;48.908;1.870;2023-11-18T08:35:16;100705.09;;;9.30;100.00
71361;BME280;59166;48.908;1.870;2023-11-18T08:40:17;100694.97;;;9.38;100.00
71361;BME280;59166;48.908;1.870;2023-11-18T08:45:20;100708.53;;;9.43;100.00
71361;BME280;59166;48.908;1.870;2023-11-18T08:50:22;100689.94;;;9.41;100.00
71361;BME280;59166;48.908;1.870;2023-11-18T08:55:23;100702.75;;;9.51;100.00
71361;BME280;59166;48.908;1.870;2023-11-18T09:00:27;100701.44;;;9.53;100.00
71361;BME280;59166;48.908;1.870;2023-11-18T09:05:28;100702.59;;;9.57;100.00
71361;BME280;59166;48.908;1.870;2023-11-18T09:10:28;100688.13;;;9.63;100.00
71361;BME280;59166;48.908;1.870;2023-11-18T09:15:30;100695.50;;;9.68;100.00
71361;BME280;59166;48.908;1.870;2023-11-18T09:20:31;100701.47;;;9.70;100.00
71361;BME280;59166;48.908;1.870;2023-11-18T09:25:32;100693.19;;;9.76;100.00
71361;BME280;59166;48.908;1.870;2023-11-18T09:30:34;100681.44;;;9.82;100.00
71361;BME280;59166;48.908;1.870;2023-11-18T09:35:35;100675.63;;;9.91;100.00
71361;BME280;59166;48.908;1.870;2023-11-18T09:40:37;100662.53;;;9.99;100.00
71361;BME280;59166;48.908;1.870;2023-11-18T09:45:43;100665.84;;;10.06;100.00
71361;BME280;59166;48.908;1.870;2023-11-18T09:50:45;100657.84;;;10.11;100.00
71361;BME280;59166;48.908;1.870;2023-11-18T09:55:54;100633.78;;;10.10;100.00
71361;BME280;59166;48.908;1.870;2023-11-18T10:00:58;100610.91;;;10.12;100.00
71361;BME280;59166;48.908;1.870;2023-11-18T10:06:02;100599.03;;;10.13;100.00
71361;BME280;59166;48.908;1.870;2023-11-18T10:11:05;100592.56;;;10.14;100.00
71361;BME280;59166;48.908;1.870;2023-11-18T10:16:08;100586.66;;;10.17;100.00
71361;BME280;59166;48.908;1.870;2023-11-18T10:21:08;100572.09;;;10.18;100.00
71361;BME280;59166;48.908;1.870;2023-11-18T10:26:09;100579.47;;;10.23;100.00
71361;BME280;59166;48.908;1.870;2023-11-18T10:31:18;100569.44;;;10.23;100.00
71361;BME280;59166;48.908;1.870;2023-11-18T10:36:20;100552.78;;;10.26;100.00
71361;BME280;59166;48.908;1.870;2023-11-18T10:41:21;100556.59;;;10.30;100.00
71361;BME280;59166;48.908;1.870;2023-11-18T10:46:24;100555.00;;;10.34;100.00
71361;BME280;59166;48.908;1.870;2023-11-18T10:51:25;100579.19;;;10.46;100.00
71361;BME280;59166;48.908;1.870;2023-11-18T10:56:27;100566.56;;;10.52;100.00
71361;BME280;59166;48.908;1.870;2023-11-18T11:01:30;100577.97;;;10.59;100.00
71361;BME280;59166;48.908;1.870;2023-11-18T11:06:32;100573.63;;;10.58;100.00
71361;BME280;59166;48.908;1.870;2023-11-18T11:11:39;100576.13;;;10.64;100.00
71361;BME280;59166;48.908;1.870;2023-11-18T11:16:42;100569.69;;;10.65;100.00
71361;BME280;59166;48.908;1.870;2023-11-18T11:21:50;100571.34;;;10.71;100.00
71361;BME280;59166;48.908;1.870;2023-11-18T11:27:09;100566.38;;;10.85;100.00
71361;BME280;59166;48.908;1.870;2023-11-18T11:32:18;100570.22;;;10.89;100.00
71361;BME280;59166;48.908;1.870;2023-11-18T11:37:25;100552.97;;;10.95;100.00
71361;BME280;59166;48.908;1.870;2023-11-18T11:42:26;100538.69;;;11.00;100.00
71361;BME280;59166;48.908;1.870;2023-11-18T11:47:30;100523.03;;;11.02;100.00
71361;BME280;59166;48.908;1.870;2023-11-18T11:52:33;100510.09;;;11.04;100.00
71361;BME280;59166;48.908;1.870;2023-11-18T11:57:34;100519.03;;;11.09;100.00
71361;BME280;59166;48.908;1.870;2023-11-18T12:02:36;100536.31;;;11.08;100.00
71361;BME280;59166;48.908;1.870;2023-11-18T12:07:40;100527.69;;;11.11;100.00
71361;BME280;59166;48.908;1.870;2023-11-18T12:12:41;100524.50;;;11.14;100.00
71361;BME280;59166;48.908;1.870;2023-11-18T12:18:10;100527.75;;;11.16;100.00
71361;BME280;59166;48.908;1.870;2023-11-18T12:23:11;100525.06;;;11.21;100.00
71361;BME280;59166;48.908;1.870;2023-11-18T12:28:15;100511.06;;;11.24;100.00
71361;BME280;59166;48.908;1.870;2023-11-18T12:33:18;100506.19;;;11.26;100.00
71361;BME280;59166;48.908;1.870;2023-11-18T12:38:35;100494.00;;;11.24;100.00
71361;BME280;59166;48.908;1.870;2023-11-18T12:43:47;100474.84;;;11.30;100.00
71361;BME280;59166;48.908;1.870;2023-11-18T12:48:54;100465.66;;;11.31;100.00
71361;BME280;59166;48.908;1.870;2023-11-18T12:53:58;100446.69;;;11.26;100.00
71361;BME280;59166;48.908;1.870;2023-11-18T12:58:59;100452.94;;;11.27;100.00
71361;BME280;59166;48.908;1.870;2023-11-18T13:04:01;100458.91;;;11.34;100.00
71361;BME280;59166;48.908;1.870;2023-11-18T13:09:02;100456.50;;;11.38;100.00
71361;BME280;59166;48.908;1.870;2023-11-18T13:14:03;100452.72;;;11.38;100.00
71361;BME280;59166;48.908;1.870;2023-11-18T13:19:05;100446.53;;;11.43;100.00
71361;BME280;59166;48.908;1.870;2023-11-18T13:24:07;100444.94;;;11.47;100.00
71361;BME280;59166;48.908;1.870;2023-11-18T13:29:08;100436.28;;;11.55;100.00
71361;BME280;59166;48.908;1.870;2023-11-18T13:34:10;100431.16;;;11.54;100.00
71361;BME280;59166;48.908;1.870;2023-11-18T13:39:16;100430.88;;;11.55;100.00
71361;BME280;59166;48.908;1.870;2023-11-18T13:44:31;100434.97;;;11.63;100.00
71361;BME280;59166;48.908;1.870;2023-11-18T13:49:34;100434.44;;;11.66;100.00
71361;BME280;59166;48.908;1.870;2023-11-18T13:54:35;100417.13;;;11.62;100.00
71361;BME280;59166;48.908;1.870;2023-11-18T13:59:36;100407.44;;;11.71;100.00
71361;BME280;59166;48.908;1.870;2023-11-18T14:04:39;100393.31;;;11.69;100.00
71361;BME280;59166;48.908;1.870;2023-11-18T14:09:40;100392.53;;;11.68;100.00
71361;BME280;59166;48.908;1.870;2023-11-18T14:14:41;100387.38;;;11.72;100.00
71361;BME280;59166;48.908;1.870;2023-11-18T14:19:43;100395.56;;;11.82;100.00
71361;BME280;59166;48.908;1.870;2023-11-18T14:24:44;100371.22;;;11.82;100.00
71361;BME280;59166;48.908;1.870;2023-11-18T14:29:44;100367.69;;;11.86;100.00
71361;BME280;59166;48.908;1.870;2023-11-18T14:34:47;100366.88;;;11.91;100.00
71361;BME280;59166;48.908;1.870;2023-11-18T14:39:47;100357.94;;;11.96;100.00
71361;BME280;59166;48.908;1.870;2023-11-18T14:44:48;100362.00;;;11.93;100.00
71361;BME280;59166;48.908;1.870;2023-11-18T14:49:51;100331.16;;;11.99;100.00
71361;BME280;59166;48.908;1.870;2023-11-18T14:54:51;100330.34;;;12.04;100.00
71361;BME280;59166;48.908;1.870;2023-11-18T14:59:52;100327.09;;;12.07;100.00
71361;BME280;59166;48.908;1.870;2023-11-18T15:04:54;100322.25;;;12.09;100.00
71361;BME280;59166;48.908;1.870;2023-11-18T15:09:55;100321.44;;;12.23;100.00
71361;BME280;59166;48.908;1.870;2023-11-18T15:14:56;100315.19;;;12.23;100.00
71361;BME280;59166;48.908;1.870;2023-11-18T15:19:58;100320.63;;;12.28;100.00
71361;BME280;59166;48.908;1.870;2023-11-18T15:24:59;100310.06;;;12.26;100.00
71361;BME280;59166;48.908;1.870;2023-11-18T15:30:00;100318.75;;;12.33;100.00
71361;BME280;59166;48.908;1.870;2023-11-18T15:35:02;100324.44;;;12.37;100.00
71361;BME280;59166;48.908;1.870;2023-11-18T15:40:05;100328.25;;;12.36;100.00
71361;BME280;59166;48.908;1.870;2023-11-18T15:45:08;100339.88;;;12.42;100.00
71361;BME280;59166;48.908;1.870;2023-11-18T15:50:12;100312.78;;;12.36;100.00
71361;BME280;59166;48.908;1.870;2023-11-18T15:55:13;100314.69;;;12.41;100.00
71361;BME280;59166;48.908;1.870;2023-11-18T16:00:14;100309.00;;;12.48;100.00
71361;BME280;59166;48.908;1.870;2023-11-18T16:05:18;100306.03;;;12.49;100.00
71361;BME280;59166;48.908;1.870;2023-11-18T16:10:19;100306.28;;;12.58;100.00
71361;BME280;59166;48.908;1.870;2023-11-18T16:15:20;100291.09;;;12.57;100.00
71361;BME280;59166;48.908;1.870;2023-11-18T16:20:24;100277.00;;;12.65;100.00
71361;BME280;59166;48.908;1.870;2023-11-18T16:25:25;100287.56;;;12.71;100.00
71361;BME280;59166;48.908;1.870;2023-11-18T16:30:27;100291.63;;;12.69;100.00
71361;BME280;59166;48.908;1.870;2023-11-18T16:35:29;100288.88;;;12.74;100.00
71361;BME280;59166;48.908;1.870;2023-11-18T16:40:30;100291.06;;;12.82;100.00
71361;BME280;59166;48.908;1.870;2023-11-18T16:45:31;100280.72;;;12.84;100.00
71361;BME280;59166;48.908;1.870;2023-11-18T16:50:33;100279.09;;;12.93;100.00
71361;BME280;59166;48.908;1.870;2023-11-18T16:55:34;100296.44;;;12.92;100.00
71361;BME280;59166;48.908;1.870;2023-11-18T17:00:35;100281.78;;;12.98;100.00
71361;BME280;59166;48.908;1.870;2023-11-18T17:05:37;100271.72;;;13.04;100.00
71361;BME280;59166;48.908;1.870;2023-11-18T17:10:38;100279.03;;;13.13;100.00
71361;BME280;59166;48.908;1.870;2023-11-18T17:15:39;100285.53;;;13.12;100.00
71361;BME280;59166;48.908;1.870;2023-11-18T17:20:48;100270.06;;;13.08;100.00
71361;BME280;59166;48.908;1.870;2023-11-18T17:25:56;100278.47;;;13.16;100.00
71361;BME280;59166;48.908;1.870;2023-11-18T17:30:57;100282.78;;;13.22;100.00
71361;BME280;59166;48.908;1.870;2023-11-18T17:35:59;100281.66;;;13.28;100.00
71361;BME280;59166;48.908;1.870;2023-11-18T17:41:00;100273.00;;;13.26;100.00
71361;BME280;59166;48.908;1.870;2023-11-18T17:46:00;100268.38;;;13.27;100.00
71361;BME280;59166;48.908;1.870;2023-11-18T17:51:03;100282.97;;;13.36;100.00
71361;BME280;59166;48.908;1.870;2023-11-18T17:56:04;100280.53;;;13.39;100.00
71361;BME280;59166;48.908;1.870;2023-11-18T18:01:05;100285.97;;;13.34;100.00
71361;BME280;59166;48.908;1.870;2023-11-18T18:06:11;100293.28;;;13.39;100.00
71361;BME280;59166;48.908;1.870;2023-11-18T18:11:12;100303.56;;;13.42;100.00
71361;BME280;59166;48.908;1.870;2023-11-18T18:16:13;100302.50;;;13.38;100.00
71361;BME280;59166;48.908;1.870;2023-11-18T18:21:15;100296.25;;;13.43;100.00
71361;BME280;59166;48.908;1.870;2023-11-18T18:26:16;100277.25;;;13.43;100.00
71361;BME280;59166;48.908;1.870;2023-11-18T18:31:16;100293.78;;;13.46;100.00
71361;BME280;59166;48.908;1.870;2023-11-18T18:36:19;100288.09;;;13.43;100.00
71361;BME280;59166;48.908;1.870;2023-11-18T18:41:19;100290.25;;;13.46;100.00
71361;BME280;59166;48.908;1.870;2023-11-18T18:46:20;100276.13;;;13.49;100.00
71361;BME280;59166;48.908;1.870;2023-11-18T18:51:22;100278.81;;;13.54;100.00
71361;BME280;59166;48.908;1.870;2023-11-18T18:56:23;100290.44;;;13.64;100.00
71361;BME280;59166;48.908;1.870;2023-11-18T19:01:24;100276.88;;;13.64;100.00
71361;BME280;59166;48.908;1.870;2023-11-18T19:06:26;100271.94;;;13.66;100.00
71361;BME280;59166;48.908;1.870;2023-11-18T19:11:27;100276.28;;;13.72;100.00
71361;BME280;59166;48.908;1.870;2023-11-18T19:16:30;100262.69;;;13.77;100.00
71361;BME280;59166;48.908;1.870;2023-11-18T19:21:32;100274.59;;;13.81;100.00
71361;BME280;59166;48.908;1.870;2023-11-18T19:26:33;100297.16;;;13.77;100.00
71361;BME280;59166;48.908;1.870;2023-11-18T19:31:34;100270.53;;;13.79;100.00
71361;BME280;59166;48.908;1.870;2023-11-18T19:36:36;100271.59;;;13.83;100.00
71361;BME280;59166;48.908;1.870;2023-11-18T19:41:37;100269.44;;;13.80;100.00
71361;BME280;59166;48.908;1.870;2023-11-18T19:46:38;100260.72;;;13.88;100.00
71361;BME280;59166;48.908;1.870;2023-11-18T19:51:40;100273.47;;;13.87;100.00
71361;BME280;59166;48.908;1.870;2023-11-18T19:56:41;100269.41;;;13.85;100.00
71361;BME280;59166;48.908;1.870;2023-11-18T20:01:42;100280.25;;;13.90;100.00
71361;BME280;59166;48.908;1.870;2023-11-18T20:06:44;100269.38;;;13.90;100.00
71361;BME280;59166;48.908;1.870;2023-11-18T20:11:48;100259.59;;;13.89;100.00
71361;BME280;59166;48.908;1.870;2023-11-18T20:16:49;100260.16;;;13.91;100.00
71361;BME280;59166;48.908;1.870;2023-11-18T20:21:51;100254.47;;;13.87;100.00
71361;BME280;59166;48.908;1.870;2023-11-18T20:26:52;100261.81;;;13.87;100.00
71361;BME280;59166;48.908;1.870;2023-11-18T20:31:53;100250.38;;;13.90;100.00
71361;BME280;59166;48.908;1.870;2023-11-18T20:36:55;100253.97;;;13.80;100.00
71361;BME280;59166;48.908;1.870;2023-11-18T20:41:56;100260.16;;;13.86;100.00
71361;BME280;59166;48.908;1.870;2023-11-18T20:46:56;100248.75;;;13.89;100.00
71361;BME280;59166;48.908;1.870;2023-11-18T20:51:59;100253.91;;;13.90;100.00
71361;BME280;59166;48.908;1.870;2023-11-18T20:56:59;100229.69;;;13.94;100.00
71361;BME280;59166;48.908;1.870;2023-11-18T21:02:00;100226.41;;;13.97;100.00
71361;BME280;59166;48.908;1.870;2023-11-18T21:07:03;100252.19;;;14.00;100.00
71361;BME280;59166;48.908;1.870;2023-11-18T21:12:04;100252.50;;;13.98;100.00
71361;BME280;59166;48.908;1.870;2023-11-18T21:17:05;100241.38;;;13.95;100.00
71361;BME280;59166;48.908;1.870;2023-11-18T21:22:07;100239.44;;;14.00;100.00
71361;BME280;59166;48.908;1.870;2023-11-18T21:27:08;100247.56;;;14.00;100.00
71361;BME280;59166;48.908;1.870;2023-11-18T21:32:09;100250.28;;;14.00;100.00
71361;BME280;59166;48.908;1.870;2023-11-18T21:37:11;100253.75;;;14.06;100.00
71361;BME280;59166;48.908;1.870;2023-11-18T21:42:12;100242.97;;;14.01;100.00
71361;BME280;59166;48.908;1.870;2023-11-18T21:47:12;100241.31;;;14.05;100.00
71361;BME280;59166;48.908;1.870;2023-11-18T21:52:15;100216.31;;;14.03;100.00
71361;BME280;59166;48.908;1.870;2023-11-18T21:57:15;100225.75;;;14.10;100.00
71361;BME280;59166;48.908;1.870;2023-11-18T22:02:16;100241.72;;;14.17;100.00
71361;BME280;59166;48.908;1.870;2023-11-18T22:07:19;100199.91;;;14.13;100.00
71361;BME280;59166;48.908;1.870;2023-11-18T22:12:19;100226.03;;;14.09;100.00
71361;BME280;59166;48.908;1.870;2023-11-18T22:17:20;100212.41;;;14.14;100.00
71361;BME280;59166;48.908;1.870;2023-11-18T22:22:22;100217.84;;;14.14;100.00
71361;BME280;59166;48.908;1.870;2023-11-18T22:27:23;100231.38;;;14.19;100.00
71361;BME280;59166;48.908;1.870;2023-11-18T22:32:24;100249.03;;;14.21;100.00
71361;BME280;59166;48.908;1.870;2023-11-18T22:37:26;100251.16;;;14.24;100.00
71361;BME280;59166;48.908;1.870;2023-11-18T22:42:27;100245.19;;;14.22;100.00
71361;BME280;59166;48.908;1.870;2023-11-18T22:47:28;100271.53;;;14.27;100.00
71361;BME280;59166;48.908;1.870;2023-11-18T22:52:30;100257.66;;;14.28;100.00
71361;BME280;59166;48.908;1.870;2023-11-18T22:57:31;100250.06;;;14.25;100.00
71361;BME280;59166;48.908;1.870;2023-11-18T23:02:32;100233.25;;;14.23;100.00
71361;BME280;59166;48.908;1.870;2023-11-18T23:07:35;100238.91;;;14.27;100.00
71361;BME280;59166;48.908;1.870;2023-11-18T23:12:36;100253.34;;;14.22;100.00
71361;BME280;59166;48.908;1.870;2023-11-18T23:17:37;100272.41;;;14.17;100.00
71361;BME280;59166;48.908;1.870;2023-11-18T23:22:39;100277.28;;;14.20;100.00
71361;BME280;59166;48.908;1.870;2023-11-18T23:27:40;100278.94;;;14.16;100.00
71361;BME280;59166;48.908;1.870;2023-11-18T23:32:40;100269.72;;;14.12;100.00
71361;BME280;59166;48.908;1.870;2023-11-18T23:37:43;100280.84;;;14.16;100.00
71361;BME280;59166;48.908;1.870;2023-11-18T23:42:43;100294.66;;;14.19;100.00
71361;BME280;59166;48.908;1.870;2023-11-18T23:47:44;100294.41;;;14.21;100.00
71361;BME280;59166;48.908;1.870;2023-11-18T23:52:46;100289.78;;;14.21;100.00
71361;BME280;59166;48.908;1.870;2023-11-18T23:57:47;100271.84;;;14.20;100.00
